createdAt,value
2022-11-08T00:00:19.873Z,50.43
2022-11-08T00:01:19.859Z,48.82
2022-11-08T00:02:20.027Z,52.37
2022-11-08T00:03:19.925Z,50.76
2022-11-08T00:04:19.837Z,46.57
2022-11-08T00:05:19.833Z,49.79
2022-11-08T00:06:19.836Z,52.37
2022-11-08T00:07:19.830Z,50.60
2022-11-08T00:08:20.242Z,48.18
2022-11-08T00:09:19.804Z,49.47
2022-11-08T00:10:19.796Z,50.43
2022-11-08T00:11:19.793Z,50.60
2022-11-08T00:12:19.799Z,48.34
2022-11-08T00:13:19.794Z,46.73
2022-11-08T00:14:19.772Z,48.50
2022-11-08T00:15:19.761Z,50.92
2022-11-08T00:16:19.757Z,48.18
2022-11-08T00:17:19.757Z,50.27
2022-11-08T00:18:20.220Z,48.02
2022-11-08T00:19:19.724Z,47.86
2022-11-08T00:20:19.716Z,48.02
2022-11-08T00:21:19.719Z,47.70
2022-11-08T00:22:19.721Z,46.73
2022-11-08T00:23:19.728Z,48.50
2022-11-08T00:24:19.698Z,47.37
2022-11-08T00:25:19.695Z,47.37
2022-11-08T00:26:19.701Z,47.05
2022-11-08T00:27:19.669Z,47.21
2022-11-08T00:28:20.098Z,46.25
2022-11-08T00:29:19.684Z,48.34
2022-11-08T00:30:19.661Z,51.24
2022-11-08T00:31:19.651Z,47.05
2022-11-08T00:32:19.659Z,50.60
2022-11-08T00:33:19.647Z,47.86
2022-11-08T00:34:19.640Z,47.70
2022-11-08T00:35:19.624Z,47.86
2022-11-08T00:36:19.616Z,49.95
2022-11-08T00:37:19.604Z,47.37
2022-11-08T00:38:19.902Z,45.76
2022-11-08T00:39:19.612Z,47.86
2022-11-08T00:40:19.605Z,46.89
2022-11-08T00:41:19.593Z,48.02
2022-11-08T00:42:19.580Z,49.31
2022-11-08T00:43:19.572Z,46.89
2022-11-08T00:44:19.584Z,47.53
2022-11-08T00:45:19.568Z,46.25
2022-11-08T00:46:19.558Z,46.89
2022-11-08T00:47:19.562Z,46.89
2022-11-08T00:48:19.821Z,47.70
2022-11-08T00:49:19.549Z,46.73
2022-11-08T00:50:19.528Z,46.89
2022-11-08T00:51:19.527Z,48.50
2022-11-08T00:52:19.516Z,46.41
2022-11-08T00:53:19.519Z,48.82
2022-11-08T00:54:19.520Z,48.50
2022-11-08T00:55:19.497Z,46.41
2022-11-08T00:56:19.492Z,46.08
2022-11-08T00:57:22.349Z,46.41
2022-11-08T00:58:24.899Z,48.50
2022-11-08T00:59:20.476Z,49.15
2022-11-08T01:00:19.503Z,47.86
2022-11-08T01:01:19.549Z,46.57
2022-11-08T01:02:19.537Z,47.37
2022-11-08T01:03:19.456Z,46.73
2022-11-08T01:04:19.449Z,46.73
2022-11-08T01:05:19.444Z,46.89
2022-11-08T01:06:19.439Z,46.89
2022-11-08T01:07:19.424Z,48.98
2022-11-08T01:08:19.752Z,48.34
2022-11-08T01:09:19.417Z,46.89
2022-11-08T01:10:19.415Z,48.02
2022-11-08T01:11:19.400Z,46.89
2022-11-08T01:12:19.402Z,48.34
2022-11-08T01:13:19.377Z,50.43
2022-11-08T01:14:19.367Z,46.25
2022-11-08T01:15:19.424Z,46.89
2022-11-08T01:16:19.368Z,46.73
2022-11-08T01:17:19.347Z,46.57
2022-11-08T01:18:19.662Z,46.41
2022-11-08T01:19:19.347Z,49.63
2022-11-08T01:20:19.335Z,48.82
2022-11-08T01:21:19.339Z,46.25
2022-11-08T01:22:19.323Z,46.89
2022-11-08T01:23:19.304Z,46.08
2022-11-08T01:24:19.308Z,46.73
2022-11-08T01:25:19.300Z,46.25
2022-11-08T01:26:19.307Z,45.92
2022-11-08T01:27:19.280Z,47.37
2022-11-08T01:28:19.670Z,46.08
2022-11-08T01:29:19.275Z,47.05
2022-11-08T01:30:19.265Z,47.21
2022-11-08T01:31:19.268Z,47.37
2022-11-08T01:32:19.252Z,46.57
2022-11-08T01:33:19.260Z,45.44
2022-11-08T01:34:19.244Z,46.41
2022-11-08T01:35:19.232Z,47.05
2022-11-08T01:36:19.226Z,49.95
2022-11-08T01:37:19.228Z,45.92
2022-11-08T01:38:19.736Z,45.60
2022-11-08T01:39:19.204Z,46.25
2022-11-08T01:40:19.200Z,45.92
2022-11-08T01:41:19.199Z,46.41
2022-11-08T01:42:19.411Z,48.50
2022-11-08T01:43:19.185Z,47.70
2022-11-08T01:44:19.181Z,46.08
2022-11-08T01:45:19.167Z,47.05
2022-11-08T01:46:19.164Z,47.86
2022-11-08T01:47:19.157Z,46.08
2022-11-08T01:48:19.705Z,45.12
2022-11-08T01:49:19.155Z,45.76
2022-11-08T01:50:19.139Z,46.89
2022-11-08T01:51:19.127Z,46.41
2022-11-08T01:52:19.128Z,47.53
2022-11-08T01:53:19.115Z,47.86
2022-11-08T01:54:19.122Z,47.86
2022-11-08T01:55:19.100Z,47.53
2022-11-08T01:56:19.099Z,46.25
2022-11-08T01:57:19.079Z,46.41
2022-11-08T01:58:19.487Z,46.89
2022-11-08T01:59:19.088Z,51.08
2022-11-08T02:00:19.056Z,47.53
2022-11-08T02:01:19.155Z,46.08
2022-11-08T02:02:19.100Z,46.25
2022-11-08T02:03:19.054Z,46.08
2022-11-08T02:04:19.055Z,45.76
2022-11-08T02:05:19.032Z,47.53
2022-11-08T02:06:19.032Z,48.66
2022-11-08T02:07:19.019Z,47.21
2022-11-08T02:08:19.431Z,51.72
2022-11-08T02:09:19.016Z,47.05
2022-11-08T02:10:18.992Z,48.98
2022-11-08T02:11:18.992Z,46.73
2022-11-08T02:12:18.979Z,45.12
2022-11-08T02:13:18.971Z,49.15
2022-11-08T02:14:18.966Z,49.15
2022-11-08T02:15:18.974Z,49.31
2022-11-08T02:16:18.939Z,47.53
2022-11-08T02:17:18.952Z,48.66
2022-11-08T02:18:19.337Z,47.86
2022-11-08T02:19:18.932Z,52.85
2022-11-08T02:20:18.943Z,47.37
2022-11-08T02:21:18.927Z,46.41
2022-11-08T02:22:18.911Z,47.21
2022-11-08T02:23:18.911Z,48.34
2022-11-08T02:24:18.900Z,45.76
2022-11-08T02:25:18.911Z,47.53
2022-11-08T02:26:18.886Z,49.95
2022-11-08T02:27:18.876Z,47.05
2022-11-08T02:28:19.307Z,50.43
2022-11-08T02:29:18.863Z,46.57
2022-11-08T02:30:18.865Z,50.11
2022-11-08T02:31:18.843Z,48.98
2022-11-08T02:32:18.837Z,47.70
2022-11-08T02:33:18.826Z,46.73
2022-11-08T02:34:18.831Z,46.08
2022-11-08T02:35:18.831Z,48.02
2022-11-08T02:36:18.810Z,50.60
2022-11-08T02:37:18.811Z,50.11
2022-11-08T02:38:19.282Z,50.43
2022-11-08T02:39:18.791Z,48.98
2022-11-08T02:40:18.799Z,51.24
2022-11-08T02:41:19.519Z,48.18
2022-11-08T02:42:18.778Z,48.18
2022-11-08T02:43:18.763Z,48.98
2022-11-08T02:44:18.756Z,50.76
2022-11-08T02:45:18.747Z,50.43
2022-11-08T02:46:18.758Z,46.73
2022-11-08T02:47:18.734Z,46.89
2022-11-08T02:48:19.247Z,50.11
2022-11-08T02:49:18.723Z,50.27
2022-11-08T02:50:18.711Z,48.98
2022-11-08T02:51:18.723Z,46.41
2022-11-08T02:52:18.707Z,45.92
2022-11-08T02:53:18.698Z,51.40
2022-11-08T02:54:18.687Z,49.15
2022-11-08T02:55:18.690Z,50.27
2022-11-08T02:56:18.686Z,48.18
2022-11-08T02:57:18.673Z,47.37
2022-11-08T02:58:19.023Z,47.86
2022-11-08T02:59:18.658Z,47.37
2022-11-08T03:00:18.655Z,47.37
2022-11-08T03:01:18.734Z,46.25
2022-11-08T03:02:18.807Z,50.27
2022-11-08T03:03:18.622Z,46.41
2022-11-08T03:04:18.623Z,47.86
2022-11-08T03:05:18.606Z,49.79
2022-11-08T03:06:18.613Z,48.34
2022-11-08T03:07:24.546Z,48.98
2022-11-08T03:08:21.169Z,47.37
2022-11-08T03:09:18.588Z,47.21
2022-11-08T03:10:18.581Z,48.02
2022-11-08T03:11:18.574Z,48.50
2022-11-08T03:12:18.578Z,48.18
2022-11-08T03:13:18.558Z,46.57
2022-11-08T03:14:18.554Z,51.72
2022-11-08T03:15:18.546Z,51.72
2022-11-08T03:16:18.545Z,49.63
2022-11-08T03:17:18.542Z,47.21
2022-11-08T03:18:18.968Z,49.31
2022-11-08T03:19:18.520Z,51.72
2022-11-08T03:20:18.518Z,50.27
2022-11-08T03:21:18.509Z,49.31
2022-11-08T03:22:18.518Z,50.76
2022-11-08T03:23:18.494Z,51.40
2022-11-08T03:24:18.481Z,48.34
2022-11-08T03:25:18.474Z,48.34
2022-11-08T03:26:18.465Z,47.70
2022-11-08T03:27:18.469Z,46.08
2022-11-08T03:28:22.682Z,48.66
2022-11-08T03:29:19.442Z,50.11
2022-11-08T03:30:18.433Z,49.47
2022-11-08T03:31:18.433Z,49.63
2022-11-08T03:32:18.449Z,48.66
2022-11-08T03:33:18.421Z,51.88
2022-11-08T03:34:18.414Z,50.27
2022-11-08T03:35:18.397Z,53.17
2022-11-08T03:36:18.394Z,49.95
2022-11-08T03:37:18.400Z,51.40
2022-11-08T03:38:18.619Z,51.56
2022-11-08T03:39:18.369Z,48.66
2022-11-08T03:40:18.366Z,52.05
2022-11-08T03:41:18.361Z,53.66
2022-11-08T03:42:18.381Z,50.43
2022-11-08T03:43:18.353Z,54.14
2022-11-08T03:44:18.333Z,52.05
2022-11-08T03:45:18.337Z,53.50
2022-11-08T03:46:18.329Z,52.21
2022-11-08T03:47:18.342Z,53.66
2022-11-08T03:48:18.634Z,51.08
2022-11-08T03:49:18.292Z,53.98
2022-11-08T03:50:18.294Z,55.75
2022-11-08T03:51:18.291Z,54.62
2022-11-08T03:52:18.282Z,51.56
2022-11-08T03:53:18.290Z,53.01
2022-11-08T03:54:18.269Z,51.56
2022-11-08T03:55:18.265Z,50.92
2022-11-08T03:56:18.257Z,53.98
2022-11-08T03:57:18.252Z,56.07
2022-11-08T03:58:18.653Z,56.56
2022-11-08T03:59:18.233Z,54.30
2022-11-08T04:00:18.228Z,52.53
2022-11-08T04:01:18.346Z,52.85
2022-11-08T04:02:18.292Z,51.56
2022-11-08T04:03:18.221Z,54.79
2022-11-08T04:04:18.192Z,53.33
2022-11-08T04:05:19.188Z,53.50
2022-11-08T04:06:18.187Z,56.07
2022-11-08T04:07:18.201Z,57.04
2022-11-08T04:08:18.530Z,53.82
2022-11-08T04:09:21.462Z,55.59
2022-11-08T04:10:19.155Z,51.72
2022-11-08T04:11:18.153Z,53.33
2022-11-08T04:12:18.147Z,53.98
2022-11-08T04:13:18.147Z,53.50
2022-11-08T04:14:18.124Z,54.14
2022-11-08T04:15:18.126Z,52.85
2022-11-08T04:16:18.256Z,57.36
2022-11-08T04:17:18.104Z,56.40
2022-11-08T04:18:18.511Z,56.24
2022-11-08T04:19:18.114Z,56.40
2022-11-08T04:20:18.092Z,57.52
2022-11-08T04:21:18.089Z,55.59
2022-11-08T04:22:18.080Z,57.85
2022-11-08T04:23:18.064Z,59.30
2022-11-08T04:24:18.062Z,56.72
2022-11-08T04:25:18.061Z,56.40
2022-11-08T04:26:18.059Z,56.07
2022-11-08T04:27:18.044Z,56.72
2022-11-08T04:28:18.289Z,57.85
2022-11-08T04:29:18.029Z,57.20
2022-11-08T04:30:18.007Z,58.65
2022-11-08T04:31:18.039Z,57.04
2022-11-08T04:32:18.000Z,56.88
2022-11-08T04:33:17.979Z,57.36
2022-11-08T04:34:17.984Z,57.85
2022-11-08T04:35:17.982Z,56.24
2022-11-08T04:36:17.958Z,57.52
2022-11-08T04:37:18.993Z,58.01
2022-11-08T04:38:18.269Z,58.01
2022-11-08T04:39:17.935Z,57.69
2022-11-08T04:40:17.936Z,56.07
2022-11-08T04:41:17.934Z,56.40
2022-11-08T04:42:17.936Z,57.04
2022-11-08T04:43:17.916Z,56.07
2022-11-08T04:44:17.908Z,56.07
2022-11-08T04:45:17.897Z,58.49
2022-11-08T04:46:17.888Z,57.69
2022-11-08T04:47:17.896Z,56.72
2022-11-08T04:48:18.222Z,56.40
2022-11-08T04:49:17.891Z,58.49
2022-11-08T04:50:17.873Z,59.30
2022-11-08T04:51:17.849Z,57.69
2022-11-08T04:52:17.855Z,57.04
2022-11-08T04:53:17.868Z,57.20
2022-11-08T04:54:17.897Z,56.88
2022-11-08T04:55:17.839Z,57.04
2022-11-08T04:56:17.831Z,57.04
2022-11-08T04:57:17.821Z,56.07
2022-11-08T04:58:18.098Z,55.27
2022-11-08T04:59:17.836Z,57.04
2022-11-08T05:00:17.804Z,57.36
2022-11-08T05:01:17.857Z,57.69
2022-11-08T05:02:17.883Z,54.62
2022-11-08T05:03:17.787Z,55.91
2022-11-08T05:04:17.775Z,57.20
2022-11-08T05:05:17.770Z,56.72
2022-11-08T05:06:17.777Z,56.72
2022-11-08T05:07:17.748Z,56.07
2022-11-08T05:08:17.984Z,58.01
2022-11-08T05:09:17.747Z,55.75
2022-11-08T05:10:17.741Z,56.72
2022-11-08T05:11:17.727Z,57.04
2022-11-08T05:12:17.710Z,58.01
2022-11-08T05:13:17.715Z,56.40
2022-11-08T05:14:17.706Z,55.91
2022-11-08T05:15:17.704Z,56.88
2022-11-08T05:16:17.679Z,55.75
2022-11-08T05:17:17.692Z,56.56
2022-11-08T05:18:17.931Z,55.75
2022-11-08T05:19:17.664Z,56.88
2022-11-08T05:20:17.671Z,58.49
2022-11-08T05:21:17.664Z,55.75
2022-11-08T05:22:17.640Z,55.91
2022-11-08T05:23:17.640Z,57.36
2022-11-08T05:24:17.637Z,57.20
2022-11-08T05:25:17.636Z,57.36
2022-11-08T05:26:17.623Z,58.01
2022-11-08T05:27:17.611Z,57.20
2022-11-08T05:28:17.839Z,56.88
2022-11-08T05:29:17.603Z,56.88
2022-11-08T05:30:17.684Z,57.20
2022-11-08T05:31:17.624Z,57.52
2022-11-08T05:32:17.584Z,58.33
2022-11-08T05:33:17.567Z,57.36
2022-11-08T05:34:17.553Z,59.14
2022-11-08T05:35:17.573Z,58.97
2022-11-08T05:36:17.540Z,58.81
2022-11-08T05:37:17.536Z,59.30
2022-11-08T05:38:17.913Z,57.85
2022-11-08T05:39:17.529Z,58.33
2022-11-08T05:40:17.524Z,59.14
2022-11-08T05:41:17.497Z,58.97
2022-11-08T05:42:17.504Z,58.97
2022-11-08T05:43:17.967Z,60.10
2022-11-08T05:44:17.684Z,59.94
2022-11-08T05:45:17.480Z,60.75
2022-11-08T05:46:17.476Z,61.07
2022-11-08T05:47:17.457Z,60.42
2022-11-08T05:48:17.802Z,59.30
2022-11-08T05:49:17.448Z,58.17
2022-11-08T05:50:19.565Z,59.30
2022-11-08T05:51:18.464Z,61.07
2022-11-08T05:52:17.432Z,59.78
2022-11-08T05:53:17.842Z,59.78
2022-11-08T05:54:17.420Z,59.62
2022-11-08T05:55:17.408Z,59.62
2022-11-08T05:56:17.412Z,60.91
2022-11-08T05:57:21.177Z,60.91
2022-11-08T05:58:18.388Z,60.10
2022-11-08T05:59:17.392Z,60.75
2022-11-08T06:00:17.376Z,59.30
2022-11-08T06:01:17.388Z,58.97
2022-11-08T06:02:17.464Z,59.30
2022-11-08T06:03:20.945Z,60.75
2022-11-08T06:04:19.356Z,58.17
2022-11-08T06:05:17.331Z,59.94
2022-11-08T06:06:17.374Z,59.94
2022-11-08T06:07:18.333Z,58.33
2022-11-08T06:08:17.338Z,58.97
2022-11-08T06:09:17.373Z,58.33
2022-11-08T06:10:17.318Z,60.42
2022-11-08T06:11:17.312Z,60.26
2022-11-08T06:12:17.298Z,59.78
2022-11-08T06:13:17.293Z,59.62
2022-11-08T06:14:17.286Z,59.62
2022-11-08T06:15:17.268Z,61.55
2022-11-08T06:16:17.273Z,60.75
2022-11-08T06:17:17.277Z,59.94
2022-11-08T06:18:17.233Z,60.59
2022-11-08T06:19:17.240Z,59.94
2022-11-08T06:20:17.217Z,59.14
2022-11-08T06:21:17.226Z,60.26
2022-11-08T06:22:17.225Z,58.49
2022-11-08T06:23:17.631Z,59.62
2022-11-08T06:24:17.201Z,59.78
2022-11-08T06:25:17.194Z,59.46
2022-11-08T06:26:17.201Z,61.23
2022-11-08T06:27:17.237Z,60.91
2022-11-08T06:28:17.173Z,59.62
2022-11-08T06:29:17.157Z,58.33
2022-11-08T06:30:17.164Z,60.10
2022-11-08T06:31:17.144Z,60.26
2022-11-08T06:32:17.162Z,58.97
2022-11-08T06:33:17.390Z,59.30
2022-11-08T06:34:17.123Z,59.62
2022-11-08T06:35:17.127Z,60.59
2022-11-08T06:36:17.107Z,59.94
2022-11-08T06:37:17.098Z,59.94
2022-11-08T06:38:17.101Z,60.91
2022-11-08T06:39:17.093Z,61.07
2022-11-08T06:40:17.082Z,59.94
2022-11-08T06:41:17.096Z,60.10
2022-11-08T06:42:17.068Z,60.59
2022-11-08T06:43:19.892Z,60.59
2022-11-08T06:44:18.041Z,57.69
2022-11-08T06:45:17.040Z,57.52
2022-11-08T06:46:17.041Z,57.69
2022-11-08T06:47:17.028Z,58.33
2022-11-08T06:48:17.023Z,59.14
2022-11-08T06:49:17.033Z,58.33
2022-11-08T06:50:17.004Z,57.52
2022-11-08T06:51:17.038Z,59.46
2022-11-08T06:52:16.992Z,61.07
2022-11-08T06:53:17.342Z,60.75
2022-11-08T06:54:18.205Z,60.75
2022-11-08T06:55:16.977Z,59.14
2022-11-08T06:56:16.944Z,60.10
2022-11-08T06:57:16.956Z,60.91
2022-11-08T06:58:16.964Z,61.39
2022-11-08T06:59:16.936Z,60.59
2022-11-08T07:00:16.928Z,61.07
2022-11-08T07:01:16.999Z,62.68
2022-11-08T07:02:17.129Z,62.04
2022-11-08T07:03:17.249Z,61.07
2022-11-08T07:04:16.915Z,61.23
2022-11-08T07:05:16.892Z,61.07
2022-11-08T07:06:16.896Z,60.75
2022-11-08T07:07:16.880Z,60.10
2022-11-08T07:08:22.303Z,61.07
2022-11-08T07:09:18.883Z,60.26
2022-11-08T07:10:16.860Z,60.26
2022-11-08T07:11:16.852Z,60.10
2022-11-08T07:12:16.846Z,59.94
2022-11-08T07:13:17.339Z,61.07
2022-11-08T07:14:16.841Z,58.33
2022-11-08T07:15:16.819Z,59.14
2022-11-08T07:16:16.821Z,59.14
2022-11-08T07:17:16.812Z,59.46
2022-11-08T07:18:16.878Z,58.33
2022-11-08T07:19:16.807Z,58.33
2022-11-08T07:20:16.780Z,58.01
2022-11-08T07:21:16.781Z,56.40
2022-11-08T07:22:16.780Z,58.17
2022-11-08T07:23:16.757Z,58.33
2022-11-08T07:24:16.762Z,60.10
2022-11-08T07:25:16.768Z,58.81
2022-11-08T07:26:16.758Z,59.62
2022-11-08T07:27:16.749Z,60.42
2022-11-08T07:28:16.749Z,58.65
2022-11-08T07:29:16.727Z,58.65
2022-11-08T07:30:16.738Z,58.97
2022-11-08T07:31:16.721Z,59.30
2022-11-08T07:32:16.700Z,58.33
2022-11-08T07:33:17.242Z,57.52
2022-11-08T07:34:16.696Z,58.97
2022-11-08T07:35:16.691Z,59.14
2022-11-08T07:36:16.696Z,57.85
2022-11-08T07:37:16.680Z,58.81
2022-11-08T07:38:16.677Z,58.81
2022-11-08T07:39:16.668Z,59.14
2022-11-08T07:40:16.667Z,60.91
2022-11-08T07:41:16.635Z,59.14
2022-11-08T07:42:16.731Z,57.04
2022-11-08T07:43:16.642Z,57.85
2022-11-08T07:44:16.624Z,57.04
2022-11-08T07:45:16.639Z,56.88
2022-11-08T07:46:16.632Z,58.49
2022-11-08T07:47:16.636Z,58.33
2022-11-08T07:48:16.612Z,57.69
2022-11-08T07:49:16.595Z,56.56
2022-11-08T07:50:17.990Z,56.07
2022-11-08T07:51:17.593Z,57.36
2022-11-08T07:52:16.584Z,58.01
2022-11-08T07:53:17.088Z,57.85
2022-11-08T07:54:16.565Z,56.40
2022-11-08T07:55:16.564Z,56.40
2022-11-08T07:56:16.558Z,57.52
2022-11-08T07:57:16.544Z,56.72
2022-11-08T07:58:16.547Z,56.07
2022-11-08T07:59:16.534Z,57.52
2022-11-08T08:00:16.512Z,58.33
2022-11-08T08:01:16.532Z,56.88
2022-11-08T08:02:16.795Z,57.36
2022-11-08T08:03:17.095Z,55.91
2022-11-08T08:04:16.527Z,57.04
2022-11-08T08:05:16.493Z,56.88
2022-11-08T08:06:16.492Z,57.85
2022-11-08T08:07:16.472Z,58.81
2022-11-08T08:08:16.472Z,58.65
2022-11-08T08:09:16.456Z,56.72
2022-11-08T08:10:16.472Z,56.72
2022-11-08T08:11:16.533Z,57.85
2022-11-08T08:12:16.455Z,57.52
2022-11-08T08:13:16.806Z,55.43
2022-11-08T08:14:16.433Z,56.88
2022-11-08T08:15:16.412Z,55.75
2022-11-08T08:16:16.418Z,55.75
2022-11-08T08:17:16.418Z,56.56
2022-11-08T08:18:16.387Z,57.52
2022-11-08T08:19:16.388Z,57.36
2022-11-08T08:20:16.384Z,56.07
2022-11-08T08:21:16.378Z,56.24
2022-11-08T08:22:16.376Z,56.56
2022-11-08T08:23:16.692Z,58.01
2022-11-08T08:24:16.345Z,57.36
2022-11-08T08:25:16.357Z,56.56
2022-11-08T08:26:16.341Z,55.75
2022-11-08T08:27:16.349Z,56.07
2022-11-08T08:28:16.460Z,56.72
2022-11-08T08:29:16.318Z,57.04
2022-11-08T08:30:16.309Z,55.91
2022-11-08T08:31:16.289Z,55.75
2022-11-08T08:32:16.315Z,54.79
2022-11-08T08:33:31.668Z,53.50
2022-11-08T08:34:18.283Z,56.40
2022-11-08T08:35:16.264Z,56.88
2022-11-08T08:36:16.266Z,56.72
2022-11-08T08:37:16.256Z,55.59
2022-11-08T08:38:16.307Z,55.75
2022-11-08T08:39:16.243Z,55.75
2022-11-08T08:40:16.233Z,53.17
2022-11-08T08:41:16.232Z,55.75
2022-11-08T08:42:16.235Z,55.11
2022-11-08T08:43:16.617Z,53.98
2022-11-08T08:44:16.216Z,52.21
2022-11-08T08:45:16.212Z,53.17
2022-11-08T08:46:16.201Z,54.30
2022-11-08T08:47:16.193Z,55.11
2022-11-08T08:48:16.212Z,54.62
2022-11-08T08:49:16.182Z,54.30
2022-11-08T08:50:16.171Z,54.46
2022-11-08T08:51:16.175Z,53.66
2022-11-08T08:52:16.166Z,52.69
2022-11-08T08:53:16.687Z,53.82
2022-11-08T08:54:16.149Z,52.53
2022-11-08T08:55:16.132Z,53.66
2022-11-08T08:56:16.128Z,54.30
2022-11-08T08:57:16.116Z,54.62
2022-11-08T08:58:16.251Z,55.27
2022-11-08T09:02:18.208Z,53.98
2022-11-08T09:03:16.375Z,53.50
2022-11-08T09:04:16.134Z,52.85
2022-11-08T09:05:16.064Z,52.21
2022-11-08T09:06:16.063Z,51.72
2022-11-08T09:07:16.096Z,53.33
2022-11-08T09:08:16.058Z,53.01
2022-11-08T09:09:16.063Z,53.66
2022-11-08T09:10:16.040Z,51.88
2022-11-08T09:11:16.032Z,49.95
2022-11-08T09:12:16.032Z,51.56
2022-11-08T09:13:16.438Z,51.56
2022-11-08T09:14:16.037Z,52.69
2022-11-08T09:15:16.016Z,53.50
2022-11-08T09:16:16.008Z,54.46
2022-11-08T09:17:15.992Z,53.17
2022-11-08T09:18:16.073Z,51.56
2022-11-08T09:19:15.992Z,51.88
2022-11-08T09:20:15.984Z,52.69
2022-11-08T09:21:16.070Z,53.33
2022-11-08T09:22:15.968Z,54.62
2022-11-08T09:23:16.145Z,55.11
2022-11-08T09:24:15.966Z,53.66
2022-11-08T09:25:15.952Z,55.27
2022-11-08T09:26:15.945Z,55.43
2022-11-08T09:27:15.935Z,55.27
2022-11-08T09:28:15.928Z,54.46
2022-11-08T09:29:15.940Z,54.14
2022-11-08T09:30:15.932Z,57.04
2022-11-08T09:31:15.916Z,56.40
2022-11-08T09:32:17.237Z,54.95
2022-11-08T09:33:17.214Z,54.95
2022-11-08T09:34:19.058Z,55.27
2022-11-08T09:35:16.907Z,55.59
2022-11-08T09:36:15.911Z,54.79
2022-11-08T09:37:15.888Z,54.62
2022-11-08T09:38:16.088Z,55.75
2022-11-08T09:39:15.899Z,55.27
2022-11-08T09:41:15.881Z,53.98
2022-11-08T09:42:15.839Z,54.79
2022-11-08T09:43:16.338Z,54.79
2022-11-08T09:44:15.825Z,55.75
2022-11-08T09:45:15.827Z,53.82
2022-11-08T09:46:15.811Z,53.82
2022-11-08T09:47:15.804Z,53.98
2022-11-08T09:48:15.785Z,57.52
2022-11-08T09:49:15.807Z,55.75
2022-11-08T09:50:15.799Z,54.95
2022-11-08T09:51:15.783Z,54.79
2022-11-08T09:52:15.789Z,55.59
2022-11-08T09:53:16.076Z,55.27
2022-11-08T09:54:18.604Z,54.46
2022-11-08T09:55:16.777Z,55.59
2022-11-08T09:56:15.740Z,56.24
2022-11-08T09:57:15.736Z,55.91
2022-11-08T09:58:15.732Z,56.07
2022-11-08T09:59:15.723Z,53.50
2022-11-08T10:00:15.720Z,56.24
2022-11-08T10:01:15.737Z,54.14
2022-11-08T10:02:15.835Z,51.88
2022-11-08T10:03:16.231Z,54.30
2022-11-08T10:04:15.703Z,53.98
2022-11-08T10:05:15.696Z,55.43
2022-11-08T10:06:15.676Z,55.11
2022-11-08T10:07:15.852Z,53.98
2022-11-08T10:08:15.667Z,54.30
2022-11-08T10:09:15.654Z,56.56
2022-11-08T10:10:15.784Z,55.11
2022-11-08T10:11:15.643Z,55.59
2022-11-08T10:12:15.644Z,54.14
2022-11-08T10:13:16.001Z,56.88
2022-11-08T10:14:16.616Z,54.95
2022-11-08T10:15:15.626Z,56.40
2022-11-08T10:16:15.611Z,54.46
2022-11-08T10:17:15.671Z,53.98
2022-11-08T10:18:15.623Z,57.69
2022-11-08T10:19:15.583Z,55.27
2022-11-08T10:20:15.595Z,53.98
2022-11-08T10:21:15.574Z,55.43
2022-11-08T10:22:15.583Z,53.66
2022-11-08T10:23:15.825Z,55.75
2022-11-08T10:24:15.571Z,54.30
2022-11-08T10:25:15.553Z,55.91
2022-11-08T10:26:15.559Z,52.69
2022-11-08T10:27:15.535Z,54.79
2022-11-08T10:28:15.522Z,54.62
2022-11-08T10:29:16.529Z,54.62
2022-11-08T10:30:15.515Z,52.85
2022-11-08T10:31:15.521Z,53.17
2022-11-08T10:32:15.511Z,53.17
2022-11-08T10:33:15.734Z,53.01
2022-11-08T10:34:15.501Z,52.85
2022-11-08T10:35:15.486Z,54.30
2022-11-08T10:36:15.466Z,52.21
2022-11-08T10:37:16.483Z,55.91
2022-11-08T10:38:15.485Z,54.46
2022-11-08T10:39:15.484Z,52.05
2022-11-08T10:40:15.455Z,54.79
2022-11-08T10:41:15.447Z,53.66
2022-11-08T10:42:15.443Z,54.46
2022-11-08T10:43:15.463Z,52.21
2022-11-08T10:44:15.447Z,54.30
2022-11-08T10:45:15.417Z,55.91
2022-11-08T10:46:15.414Z,55.91
2022-11-08T10:47:15.403Z,54.30
2022-11-08T10:48:15.725Z,55.75
2022-11-08T10:49:15.400Z,56.24
2022-11-08T10:50:15.374Z,55.43
2022-11-08T10:51:15.374Z,54.30
2022-11-08T10:52:15.365Z,55.27
2022-11-08T10:53:15.512Z,52.69
2022-11-08T10:54:15.373Z,51.08
2022-11-08T10:55:15.340Z,54.46
2022-11-08T10:56:15.364Z,52.37
2022-11-08T10:57:15.340Z,53.50
2022-11-08T10:58:15.589Z,53.66
2022-11-08T10:59:15.325Z,54.62
2022-11-08T11:00:15.324Z,52.85
2022-11-08T11:01:15.318Z,53.98
2022-11-08T11:02:15.320Z,54.30
2022-11-08T11:03:15.293Z,54.30
2022-11-08T11:04:15.294Z,54.62
2022-11-08T11:05:15.283Z,54.95
2022-11-08T11:06:15.287Z,54.46
2022-11-08T11:07:15.333Z,53.33
2022-11-08T11:08:15.457Z,52.85
2022-11-08T11:09:15.267Z,53.01
2022-11-08T11:10:15.242Z,54.95
2022-11-08T11:11:15.243Z,53.17
2022-11-08T11:12:15.238Z,54.30
2022-11-08T11:13:15.322Z,54.79
2022-11-08T11:14:19.447Z,55.43
2022-11-08T11:15:16.227Z,53.98
2022-11-08T11:16:15.216Z,52.05
2022-11-08T11:17:15.245Z,51.72
2022-11-08T11:18:15.438Z,51.24
2022-11-08T11:19:15.245Z,52.37
2022-11-08T11:20:15.186Z,52.21
2022-11-08T11:21:15.184Z,52.53
2022-11-08T11:22:15.162Z,56.40
2022-11-08T11:23:15.166Z,54.79
2022-11-08T11:24:17.858Z,52.21
2022-11-08T11:25:15.142Z,54.95
2022-11-08T11:26:15.158Z,53.17
2022-11-08T11:27:15.142Z,52.53
2022-11-08T11:28:15.415Z,53.82
2022-11-08T11:29:15.126Z,54.30
2022-11-08T11:30:15.143Z,54.30
2022-11-08T11:31:15.115Z,54.95
2022-11-08T11:32:15.105Z,51.24
2022-11-08T11:33:15.151Z,55.11
2022-11-08T11:34:15.105Z,57.36
2022-11-08T11:35:15.108Z,53.50
2022-11-08T11:36:15.074Z,54.79
2022-11-08T11:37:16.074Z,55.27
2022-11-08T11:38:15.375Z,55.27
2022-11-08T11:39:15.055Z,54.30
2022-11-08T11:40:15.154Z,55.11
2022-11-08T11:41:15.221Z,54.30
2022-11-08T11:42:43.796Z,54.46
2022-11-08T11:43:17.033Z,55.27
2022-11-08T11:44:15.018Z,56.40
2022-11-08T11:45:15.017Z,56.88
2022-11-08T11:46:15.070Z,54.14
2022-11-08T11:47:15.334Z,57.36
2022-11-08T11:48:15.299Z,54.62
2022-11-08T11:49:14.994Z,52.85
2022-11-08T11:50:15.025Z,54.30
2022-11-08T11:51:15.011Z,55.27
2022-11-08T11:52:14.997Z,56.56
2022-11-08T11:53:14.966Z,53.98
2022-11-08T11:54:14.960Z,54.95
2022-11-08T11:55:14.997Z,55.75
2022-11-08T11:56:14.964Z,53.98
2022-11-08T11:57:14.981Z,55.75
2022-11-08T11:58:15.190Z,56.07
2022-11-08T11:59:14.925Z,58.01
2022-11-08T12:00:14.988Z,55.43
2022-11-08T12:01:15.040Z,54.62
2022-11-08T12:02:14.939Z,57.20
2022-11-08T12:03:15.222Z,56.24
2022-11-08T12:04:14.901Z,56.07
2022-11-08T12:05:14.897Z,57.04
2022-11-08T12:06:14.867Z,56.56
2022-11-08T12:07:14.891Z,58.01
2022-11-08T12:08:15.068Z,57.52
2022-11-08T12:09:14.873Z,57.36
2022-11-08T12:10:14.841Z,56.24
2022-11-08T12:11:14.835Z,54.46
2022-11-08T12:12:14.903Z,55.27
2022-11-08T12:13:14.813Z,52.53
2022-11-08T12:14:14.844Z,54.14
2022-11-08T12:15:14.817Z,54.79
2022-11-08T12:16:14.801Z,56.07
2022-11-08T12:17:14.796Z,57.52
2022-11-08T12:18:21.655Z,55.91
2022-11-08T12:19:16.805Z,55.59
2022-11-08T12:20:14.783Z,58.01
2022-11-08T12:21:14.858Z,53.82
2022-11-08T12:22:14.805Z,56.88
2022-11-08T12:23:14.815Z,56.24
2022-11-08T12:24:14.789Z,56.88
2022-11-08T12:25:14.730Z,55.91
2022-11-08T12:26:14.790Z,57.69
2022-11-08T12:27:14.754Z,58.17
2022-11-08T12:28:14.743Z,59.14
2022-11-08T12:29:14.737Z,58.49
2022-11-08T12:30:14.711Z,57.20
2022-11-08T12:31:14.688Z,55.75
2022-11-08T12:32:14.685Z,57.04
2022-11-08T12:33:14.696Z,58.81
2022-11-08T12:34:14.716Z,56.72
2022-11-08T12:35:14.671Z,55.75
2022-11-08T12:36:14.656Z,57.04
2022-11-08T12:37:14.653Z,55.27
2022-11-08T12:38:14.767Z,57.04
2022-11-08T12:39:18.001Z,58.97
2022-11-08T12:40:15.632Z,56.40
2022-11-08T12:41:14.628Z,58.65
2022-11-08T12:42:14.625Z,56.07
2022-11-08T12:43:14.614Z,57.52
2022-11-08T12:44:14.628Z,56.56
2022-11-08T12:45:14.601Z,57.04
2022-11-08T12:46:14.588Z,56.72
2022-11-08T12:47:14.586Z,58.17
2022-11-08T12:48:14.650Z,56.56
2022-11-08T12:49:14.605Z,56.07
2022-11-08T12:50:14.565Z,56.88
2022-11-08T12:51:14.566Z,57.20
2022-11-08T12:52:14.550Z,57.85
2022-11-08T12:53:14.546Z,56.56
2022-11-08T12:54:14.536Z,56.88
2022-11-08T12:55:14.543Z,54.14
2022-11-08T12:56:14.522Z,54.95